Time;durP1;ratioP1;P1;durP2;ratioP2;P2;SDS_P1;SDS_P2;PMS_P1;PMS_P2;Temp;Humidity;BMP_temperature;BMP_pressure;BME280_temperature;BME280_humidity;BME280_pressure;Samples;Min_cycle;Max_cycle;Signal;HPM_P1;HPM_P2
2021/09/09 00:01:03;;;;;;;10.48;8.30;;;19.60;99.90;;;;;;5014890;28;20034;-82
2021/09/09 00:03:28;;;;;;;8.63;7.07;;;19.50;99.90;;;;;;4998284;28;20060;-81
2021/09/09 00:05:55;;;;;;;8.82;7.25;;;19.50;99.90;;;;;;5016268;28;20481;-81
2021/09/09 00:08:20;;;;;;;9.85;7.65;;;19.50;99.90;;;;;;5014158;28;20137;-81
2021/09/09 00:10:47;;;;;;;9.88;7.90;;;19.40;99.90;;;;;;5014380;28;20060;-81
2021/09/09 00:13:13;;;;;;;10.07;7.85;;;19.40;99.90;;;;;;5014409;28;20573;-81
2021/09/09 00:15:39;;;;;;;8.88;7.25;;;19.40;99.90;;;;;;5015059;28;20112;-80
2021/09/09 00:18:05;;;;;;;10.00;7.82;;;19.30;99.90;;;;;;5013486;28;20034;-83
2021/09/09 00:20:31;;;;;;;10.20;7.57;;;19.30;99.90;;;;;;5015488;28;20072;-81
2021/09/09 00:22:57;;;;;;;10.15;8.32;;;19.30;99.90;;;;;;5014332;28;20084;-81
2021/09/09 00:25:27;;;;;;;9.82;8.07;;;19.30;99.90;;;;;;5014102;28;20022;-81
2021/09/09 00:27:53;;;;;;;10.48;8.40;;;19.20;99.90;;;;;;5014211;28;20033;-81
2021/09/09 00:30:19;;;;;;;11.27;8.27;;;19.20;99.90;;;;;;5014125;28;20053;-81
2021/09/09 00:32:45;;;;;;;9.98;7.75;;;19.20;99.90;;;;;;5015443;28;20049;-81
2021/09/09 00:35:11;;;;;;;10.18;7.72;;;19.10;99.90;;;;;;5015577;28;20097;-81
2021/09/09 00:37:37;;;;;;;9.75;8.10;;;19.10;99.90;;;;;;5022348;28;20068;-81
2021/09/09 00:40:04;;;;;;;9.07;7.88;;;19.10;99.90;;;;;;4997890;28;20030;-82
2021/09/09 00:42:30;;;;;;;10.25;8.45;;;19.10;99.90;;;;;;4997448;28;20053;-82
2021/09/09 00:44:57;;;;;;;8.73;7.20;;;19.10;99.90;;;;;;5013908;28;20060;-81
2021/09/09 00:47:22;;;;;;;10.55;8.43;;;19.00;99.90;;;;;;5014956;28;20382;-82
2021/09/09 00:49:48;;;;;;;10.93;8.15;;;19.00;99.90;;;;;;4997513;28;20033;-82
2021/09/09 00:52:15;;;;;;;11.00;8.55;;;19.00;99.90;;;;;;5014686;28;20087;-82
2021/09/09 00:54:45;;;;;;;10.52;8.25;;;19.00;99.90;;;;;;5014980;28;20028;-81
2021/09/09 00:57:17;;;;;;;11.60;8.65;;;19.00;99.90;;;;;;5013537;28;20021;-81
2021/09/09 00:59:44;;;;;;;10.55;8.00;;;18.90;99.90;;;;;;5014798;28;20033;-81
2021/09/09 01:02:11;;;;;;;10.70;7.88;;;18.90;99.90;;;;;;5013589;28;20466;-81
2021/09/09 01:04:37;;;;;;;10.52;8.10;;;18.80;99.90;;;;;;5013427;28;20463;-82
2021/09/09 01:07:03;;;;;;;10.80;9.07;;;18.80;99.90;;;;;;5013159;28;20084;-82
2021/09/09 01:09:29;;;;;;;9.98;8.13;;;18.80;99.90;;;;;;5014519;28;20033;-82
2021/09/09 01:11:56;;;;;;;11.43;8.43;;;18.70;99.90;;;;;;4997101;28;20030;-81
2021/09/09 01:14:23;;;;;;;12.43;8.40;;;18.70;99.90;;;;;;5012292;28;20152;-82
2021/09/09 01:16:49;;;;;;;11.93;9.23;;;18.70;99.90;;;;;;5013492;28;20022;-81
2021/09/09 01:19:16;;;;;;;10.15;8.07;;;18.70;99.90;;;;;;5013249;28;20033;-82
2021/09/09 01:21:42;;;;;;;10.85;8.25;;;18.60;99.90;;;;;;5013098;28;20022;-82
2021/09/09 01:24:22;;;;;;;11.30;9.07;;;18.70;99.90;;;;;;5014399;28;20037;-83
2021/09/09 01:27:06;;;;;;;10.05;8.00;;;18.60;99.90;;;;;;5013197;28;20029;-82
2021/09/09 01:29:37;;;;;;;11.05;8.43;;;18.60;99.90;;;;;;5013417;28;20030;-82
2021/09/09 01:32:05;;;;;;;11.73;8.68;;;18.60;99.90;;;;;;5013326;28;20026;-82
2021/09/09 01:34:31;;;;;;;10.40;8.63;;;18.50;99.90;;;;;;5013013;28;20076;-83
2021/09/09 01:36:57;;;;;;;10.23;8.27;;;18.50;99.90;;;;;;4996352;28;20176;-82
2021/09/09 01:39:24;;;;;;;11.07;9.18;;;18.40;99.90;;;;;;5012953;28;20493;-82
2021/09/09 01:41:55;;;;;;;9.60;7.82;;;18.40;99.90;;;;;;4996760;28;20474;-82
2021/09/09 01:44:23;;;;;;;11.05;8.70;;;18.40;99.90;;;;;;5013145;28;20053;-82
2021/09/09 01:46:49;;;;;;;10.30;8.48;;;18.40;99.90;;;;;;5012877;28;20030;-83
2021/09/09 01:49:17;;;;;;;10.38;8.27;;;18.40;99.90;;;;;;5014011;28;20034;-82
2021/09/09 01:51:43;;;;;;;10.93;8.70;;;18.40;99.90;;;;;;5012844;28;20471;-82
2021/09/09 01:54:10;;;;;;;10.48;8.27;;;18.30;99.90;;;;;;5013173;28;20026;-83
2021/09/09 01:56:36;;;;;;;11.38;8.65;;;18.30;99.90;;;;;;5024252;28;20113;-82
2021/09/09 01:59:03;;;;;;;10.88;8.65;;;18.20;99.90;;;;;;5014316;28;20045;-82
2021/09/09 02:01:29;;;;;;;12.18;9.43;;;18.20;99.90;;;;;;5014065;28;20029;-82
2021/09/09 02:03:55;;;;;;;11.15;9.07;;;18.20;99.90;;;;;;5012782;28;20026;-82
2021/09/09 02:06:22;;;;;;;12.23;9.18;;;18.20;99.90;;;;;;5012538;28;20462;-83
2021/09/09 02:08:48;;;;;;;11.05;8.82;;;18.10;99.90;;;;;;5012736;28;20040;-82
2021/09/09 02:11:15;;;;;;;10.75;8.55;;;18.10;99.90;;;;;;4996126;28;20449;-82
2021/09/09 02:13:41;;;;;;;11.95;9.43;;;18.10;99.90;;;;;;5012527;28;20111;-82
2021/09/09 02:16:06;;;;;;;11.25;9.13;;;18.00;99.90;;;;;;5012710;28;20026;-82
2021/09/09 02:18:34;;;;;;;10.38;8.60;;;18.00;99.90;;;;;;4995887;28;20038;-82
2021/09/09 02:20:59;;;;;;;11.10;8.88;;;18.00;99.90;;;;;;5012560;28;20069;-83
2021/09/09 02:23:27;;;;;;;11.88;9.13;;;18.00;99.90;;;;;;5012657;28;20049;-82
2021/09/09 02:25:54;;;;;;;11.23;8.57;;;18.00;99.90;;;;;;5014663;28;20083;-83
2021/09/09 02:28:20;;;;;;;11.48;9.13;;;17.90;99.90;;;;;;5016606;28;20034;-82
2021/09/09 02:30:46;;;;;;;11.15;9.02;;;17.90;99.90;;;;;;5015723;28;20026;-82
2021/09/09 02:33:12;;;;;;;11.60;9.70;;;17.80;99.90;;;;;;5016449;28;20025;-82
2021/09/09 02:35:38;;;;;;;13.50;8.95;;;17.80;99.90;;;;;;5016576;28;20030;-82
2021/09/09 02:38:04;;;;;;;11.75;9.45;;;17.70;99.90;;;;;;5016355;28;20030;-82
2021/09/09 02:40:31;;;;;;;11.57;9.50;;;17.70;99.90;;;;;;5016285;28;20053;-82
2021/09/09 02:42:58;;;;;;;11.27;8.77;;;17.70;99.90;;;;;;5016439;28;20076;-82
2021/09/09 02:45:24;;;;;;;12.63;8.98;;;17.70;99.90;;;;;;5015931;28;20065;-83
2021/09/09 02:47:50;;;;;;;10.98;8.98;;;17.70;99.90;;;;;;5015884;28;20482;-83
2021/09/09 02:50:16;;;;;;;11.38;9.43;;;17.70;99.90;;;;;;5015850;28;20022;-83
2021/09/09 02:52:43;;;;;;;12.90;9.57;;;17.60;99.90;;;;;;5015974;28;20391;-83
2021/09/09 02:55:09;;;;;;;11.77;9.10;;;17.60;99.90;;;;;;5015737;28;20025;-83
2021/09/09 02:57:36;;;;;;;12.40;9.35;;;17.60;99.90;;;;;;5015680;28;20454;-83
2021/09/09 03:00:02;;;;;;;12.77;9.52;;;17.60;99.90;;;;;;5015779;28;20108;-83
2021/09/09 03:02:29;;;;;;;13.55;8.73;;;17.50;99.90;;;;;;5016689;28;20385;-83
2021/09/09 03:04:55;;;;;;;11.07;9.23;;;17.50;99.90;;;;;;5016880;28;20021;-83
2021/09/09 03:07:24;;;;;;;11.50;8.82;;;17.50;99.90;;;;;;5015601;28;20037;-82
2021/09/09 03:09:50;;;;;;;12.10;9.70;;;17.50;99.90;;;;;;5015771;28;20037;-83
2021/09/09 03:12:16;;;;;;;11.65;9.07;;;17.40;99.90;;;;;;5015935;28;20022;-83
2021/09/09 03:14:42;;;;;;;13.63;10.13;;;17.40;99.90;;;;;;5014908;28;20062;-83
2021/09/09 03:17:10;;;;;;;12.63;9.57;;;17.40;99.90;;;;;;5015831;28;20362;-83
2021/09/09 03:19:36;;;;;;;11.23;9.20;;;17.40;99.90;;;;;;5014135;28;20040;-83
2021/09/09 03:22:01;;;;;;;12.50;9.18;;;17.30;99.90;;;;;;5014167;28;20117;-83
2021/09/09 03:24:27;;;;;;;12.57;9.95;;;17.30;99.90;;;;;;5014175;28;20060;-80
2021/09/09 03:26:54;;;;;;;12.68;10.05;;;17.30;99.90;;;;;;5014370;28;20380;-80
2021/09/09 03:29:20;;;;;;;11.82;9.77;;;17.20;99.90;;;;;;5013238;28;20065;-82
2021/09/09 03:31:46;;;;;;;11.65;9.57;;;17.20;99.90;;;;;;5015636;28;20021;-82
2021/09/09 03:34:12;;;;;;;11.88;9.43;;;17.30;99.90;;;;;;5014298;28;20092;-81
2021/09/09 03:36:38;;;;;;;12.25;9.63;;;17.20;99.90;;;;;;5014948;28;20029;-81
2021/09/09 03:39:04;;;;;;;13.98;10.02;;;17.20;99.90;;;;;;5013773;28;20080;-81
2021/09/09 03:41:29;;;;;;;12.35;9.98;;;17.20;99.90;;;;;;5013810;28;20030;-82
2021/09/09 03:43:55;;;;;;;11.55;9.52;;;17.10;99.90;;;;;;5024491;28;20022;-82
2021/09/09 03:46:20;;;;;;;12.30;9.85;;;17.10;99.90;;;;;;5014608;28;20415;-82
2021/09/09 03:48:46;;;;;;;11.85;9.68;;;17.10;99.90;;;;;;5014069;28;20026;-82
2021/09/09 03:51:12;;;;;;;12.23;10.18;;;17.10;99.90;;;;;;5015192;28;20033;-81
2021/09/09 03:53:37;;;;;;;11.82;9.52;;;17.10;99.90;;;;;;5013895;28;20018;-82
2021/09/09 03:56:03;;;;;;;12.15;9.95;;;17.10;99.90;;;;;;5013905;28;20022;-82
2021/09/09 03:58:29;;;;;;;12.50;9.82;;;17.00;99.90;;;;;;5013700;28;20032;-82
2021/09/09 04:00:54;;;;;;;13.27;10.27;;;17.00;99.90;;;;;;5013768;28;20362;-81
2021/09/09 04:03:20;;;;;;;13.25;10.63;;;17.00;99.90;;;;;;5013763;28;20090;-81
2021/09/09 04:05:46;;;;;;;13.07;10.13;;;17.00;99.90;;;;;;4997300;28;20026;-81
2021/09/09 04:08:14;;;;;;;14.57;10.13;;;16.90;99.90;;;;;;5013294;28;20390;-81
2021/09/09 04:10:40;;;;;;;12.52;10.20;;;16.90;99.90;;;;;;5013772;28;20109;-81
2021/09/09 04:13:06;;;;;;;12.63;10.40;;;16.90;99.90;;;;;;5013586;28;20109;-81
2021/09/09 04:15:33;;;;;;;14.43;10.90;;;16.90;99.90;;;;;;4974195;28;1174945;-81
2021/09/09 04:18:02;;;;;;;14.73;10.57;;;16.90;99.90;;;;;;5014256;28;20080;-81
2021/09/09 04:20:27;;;;;;;13.88;10.73;;;16.90;99.90;;;;;;4998487;28;20038;-81
2021/09/09 04:22:53;;;;;;;13.05;10.07;;;16.90;99.90;;;;;;5014489;28;20084;-82
2021/09/09 04:25:22;;;;;;;12.88;10.80;;;16.90;99.90;;;;;;5015512;28;20026;-81
2021/09/09 04:27:53;;;;;;;14.38;10.82;;;16.90;99.90;;;;;;5014071;28;20025;-81
2021/09/09 04:30:20;;;;;;;13.40;11.02;;;16.90;99.90;;;;;;5016066;28;20026;-82
2021/09/09 04:32:46;;;;;;;11.85;9.50;;;16.90;99.90;;;;;;5014035;28;20018;-81
2021/09/09 04:35:13;;;;;;;12.27;9.48;;;16.80;99.90;;;;;;5014186;28;20188;-81
2021/09/09 04:37:39;;;;;;;11.95;10.00;;;16.80;99.90;;;;;;4997282;28;20079;-81
2021/09/09 04:40:05;;;;;;;13.52;10.57;;;16.80;99.90;;;;;;5014042;28;20042;-81
2021/09/09 04:42:31;;;;;;;12.88;10.32;;;16.80;99.90;;;;;;5013697;28;20034;-81
2021/09/09 04:44:57;;;;;;;12.77;10.18;;;16.80;99.90;;;;;;5013937;28;20036;-81
2021/09/09 04:47:24;;;;;;;13.13;10.82;;;16.70;99.90;;;;;;4997214;28;20032;-81
2021/09/09 04:49:50;;;;;;;12.63;10.60;;;16.70;99.90;;;;;;4996606;28;20553;-81
2021/09/09 04:52:16;;;;;;;13.68;10.30;;;16.70;99.90;;;;;;5013895;28;20053;-81
2021/09/09 04:54:41;;;;;;;14.20;10.65;;;16.70;99.90;;;;;;4997474;28;20421;-81
2021/09/09 04:57:14;;;;;;;14.25;10.95;;;16.70;99.90;;;;;;5013260;28;20072;-82
2021/09/09 04:59:41;;;;;;;12.43;9.95;;;16.70;99.90;;;;;;4995401;28;20030;-81
2021/09/09 05:02:08;;;;;;;12.73;10.38;;;16.70;99.90;;;;;;4995124;28;20053;-81
2021/09/09 05:04:38;;;;;;;13.73;10.60;;;16.70;99.90;;;;;;5011669;28;20030;-80
2021/09/09 05:07:05;;;;;;;13.70;10.70;;;16.70;99.90;;;;;;5003903;28;20049;-81
2021/09/09 05:09:31;;;;;;;13.95;10.65;;;16.70;99.90;;;;;;5000079;28;20030;-81
2021/09/09 05:11:57;;;;;;;14.43;11.13;;;16.70;99.90;;;;;;5027711;28;20022;-82
2021/09/09 05:14:24;;;;;;;12.18;10.10;;;16.70;99.90;;;;;;5013135;28;20050;-81
2021/09/09 05:16:49;;;;;;;13.80;10.90;;;16.70;99.90;;;;;;5029756;28;20517;-81
2021/09/09 05:19:18;;;;;;;14.45;10.88;;;16.70;99.90;;;;;;5013164;28;20112;-81
2021/09/09 05:21:46;;;;;;;14.85;11.00;;;16.70;99.90;;;;;;5029746;28;20053;-81
2021/09/09 05:24:12;;;;;;;15.13;11.00;;;16.70;99.90;;;;;;5014530;28;20066;-81
2021/09/09 05:26:38;;;;;;;15.45;10.27;;;16.70;99.90;;;;;;5029595;28;20136;-82
2021/09/09 05:29:06;;;;;;;13.65;10.32;;;16.70;99.90;;;;;;5012737;28;20095;-81
2021/09/09 05:31:33;;;;;;;13.55;10.50;;;16.70;99.90;;;;;;5017098;28;20036;-82
2021/09/09 05:34:02;;;;;;;13.27;10.30;;;16.70;99.90;;;;;;5012881;28;20033;-81
2021/09/09 05:36:28;;;;;;;15.40;10.80;;;16.80;99.90;;;;;;5028997;28;20034;-81
2021/09/09 05:38:56;;;;;;;14.60;11.80;;;16.80;99.90;;;;;;5013949;28;20042;-82
2021/09/09 05:41:23;;;;;;;14.30;11.85;;;16.80;99.90;;;;;;5013011;28;20072;-81
2021/09/09 05:43:49;;;;;;;15.15;12.10;;;16.80;99.90;;;;;;5013065;28;20034;-81
2021/09/09 05:46:15;;;;;;;19.50;11.95;;;16.80;99.90;;;;;;5014048;28;20112;-81
2021/09/09 05:48:42;;;;;;;13.60;11.15;;;16.80;99.90;;;;;;5029149;28;20040;-82
2021/09/09 05:51:07;;;;;;;12.63;10.88;;;16.90;99.90;;;;;;5029255;28;20099;-82
2021/09/09 05:53:34;;;;;;;14.52;11.70;;;16.90;99.90;;;;;;5029123;28;20026;-82
2021/09/09 05:56:01;;;;;;;12.88;10.80;;;16.90;99.90;;;;;;5029177;28;20096;-82
2021/09/09 05:58:28;;;;;;;12.00;10.50;;;17.00;99.90;;;;;;5012755;28;20034;-82
2021/09/09 06:00:55;;;;;;;14.55;10.77;;;17.00;99.90;;;;;;5029233;28;20385;-82
2021/09/09 06:03:25;;;;;;;15.15;11.63;;;17.00;99.90;;;;;;5012197;28;20034;-82
2021/09/09 06:06:00;;;;;;;14.57;11.45;;;17.10;99.90;;;;;;5013625;28;20658;-83
2021/09/09 06:08:27;;;;;;;13.05;10.85;;;17.10;99.90;;;;;;5028927;28;20030;-83
2021/09/09 06:10:53;;;;;;;14.38;11.10;;;17.20;99.90;;;;;;5029098;28;20084;-82
2021/09/09 06:13:22;;;;;;;15.38;11.52;;;17.20;99.90;;;;;;5013593;28;20105;-81
2021/09/09 06:15:49;;;;;;;16.48;11.35;;;17.30;99.90;;;;;;5013356;28;20046;-82
2021/09/09 06:18:15;;;;;;;16.17;11.82;;;17.30;99.90;;;;;;5011975;28;20038;-82
2021/09/09 06:20:47;;;;;;;15.40;11.88;;;17.40;99.90;;;;;;5028710;28;20057;-81
2021/09/09 06:23:17;;;;;;;14.02;11.32;;;17.40;99.90;;;;;;5030245;28;20046;-81
2021/09/09 06:25:44;;;;;;;15.88;11.90;;;17.50;99.90;;;;;;5029010;28;20493;-82
2021/09/09 06:28:10;;;;;;;15.88;11.90;;;17.50;99.90;;;;;;5028483;28;20029;-82
2021/09/09 06:30:46;;;;;;;14.30;11.63;;;17.60;99.90;;;;;;5029267;28;20025;-82
2021/09/09 06:33:15;;;;;;;15.88;12.13;;;17.60;99.90;;;;;;5014244;28;20041;-82
2021/09/09 06:35:45;;;;;;;15.07;11.88;;;17.60;99.90;;;;;;5013589;28;20042;-81
2021/09/09 06:38:11;;;;;;;14.23;10.93;;;17.70;99.90;;;;;;5014151;28;20036;-81
2021/09/09 06:40:39;;;;;;;14.70;12.23;;;17.70;99.90;;;;;;5012345;28;20037;-81
2021/09/09 06:43:07;;;;;;;13.60;11.35;;;17.80;99.90;;;;;;5014247;28;20041;-81
2021/09/09 06:45:34;;;;;;;14.32;12.00;;;17.80;99.90;;;;;;5013581;28;20045;-81
2021/09/09 06:48:01;;;;;;;14.80;11.82;;;17.90;99.90;;;;;;5013894;28;20408;-81
2021/09/09 06:50:30;;;;;;;15.30;11.40;;;17.90;99.90;;;;;;5029095;28;20145;-80
2021/09/09 06:52:55;;;;;;;14.60;12.02;;;17.90;99.90;;;;;;5012624;28;20132;-80
2021/09/09 06:55:21;;;;;;;13.68;11.38;;;18.00;99.90;;;;;;5013310;28;20457;-81
2021/09/09 06:57:47;;;;;;;14.63;11.95;;;18.10;99.90;;;;;;5013797;28;20101;-81
2021/09/09 07:00:13;;;;;;;14.35;11.50;;;18.20;99.90;;;;;;5028778;28;20474;-81
2021/09/09 07:02:39;;;;;;;14.25;11.80;;;18.30;99.90;;;;;;5028747;28;20022;-82
2021/09/09 07:05:09;;;;;;;15.70;12.60;;;18.30;99.90;;;;;;5012509;28;20157;-82
2021/09/09 07:07:38;;;;;;;13.35;11.43;;;18.40;99.90;;;;;;5012294;28;20029;-81
2021/09/09 07:10:07;;;;;;;13.13;11.27;;;18.50;99.90;;;;;;5013925;28;20116;-82
2021/09/09 07:12:34;;;;;;;13.98;11.20;;;18.50;99.90;;;;;;5029709;28;20034;-81
2021/09/09 07:15:04;;;;;;;15.65;11.90;;;18.60;99.90;;;;;;5016382;28;20061;-82
2021/09/09 07:17:31;;;;;;;16.98;11.70;;;18.70;99.90;;;;;;5032104;28;20026;-82
2021/09/09 07:19:57;;;;;;;13.88;12.27;;;18.70;99.90;;;;;;5032411;28;20459;-83
2021/09/09 07:22:24;;;;;;;15.95;13.73;;;18.80;99.90;;;;;;5032304;28;20397;-82
2021/09/09 07:24:51;;;;;;;17.73;13.82;;;18.90;99.90;;;;;;5016759;28;20022;-82
2021/09/09 07:27:18;;;;;;;14.75;12.80;;;19.00;99.90;;;;;;5032034;28;20057;-82
2021/09/09 07:29:47;;;;;;;19.63;16.02;;;19.10;99.90;;;;;;5016875;28;20052;-82
2021/09/09 07:32:15;;;;;;;19.95;16.27;;;19.20;99.90;;;;;;5015610;28;20037;-82
2021/09/09 07:34:43;;;;;;;22.80;18.70;;;19.30;99.90;;;;;;5015458;28;20096;-82
2021/09/09 07:37:11;;;;;;;21.02;16.15;;;19.30;99.90;;;;;;5016760;28;20347;-82
2021/09/09 07:39:38;;;;;;;17.65;13.63;;;19.40;99.90;;;;;;5031444;28;20371;-82
2021/09/09 07:42:04;;;;;;;18.25;14.07;;;19.40;99.90;;;;;;5015027;28;20394;-82
2021/09/09 07:44:30;;;;;;;21.45;17.33;;;19.50;99.90;;;;;;5031680;28;20017;-81
2021/09/09 07:46:56;;;;;;;16.83;13.85;;;19.60;99.90;;;;;;5031675;28;20053;-81
2021/09/09 07:49:22;;;;;;;15.73;12.68;;;19.70;99.90;;;;;;5016434;28;20044;-81
2021/09/09 07:51:49;;;;;;;15.30;12.48;;;19.80;99.90;;;;;;5031531;28;20018;-81
2021/09/09 07:54:18;;;;;;;21.10;16.52;;;19.90;99.90;;;;;;5016190;28;20032;-80
2021/09/09 07:56:49;;;;;;;16.40;13.88;;;20.10;99.90;;;;;;5031248;28;20026;-80
2021/09/09 07:59:18;;;;;;;15.77;13.07;;;20.20;99.90;;;;;;5031395;28;20057;-81
2021/09/09 08:01:47;;;;;;;15.02;12.85;;;20.30;99.90;;;;;;5016100;28;20041;-81
2021/09/09 08:04:16;;;;;;;18.73;14.32;;;20.40;99.90;;;;;;5015356;28;20034;-81
2021/09/09 08:06:44;;;;;;;14.25;12.43;;;20.50;99.90;;;;;;5016389;28;20478;-81
2021/09/09 08:09:12;;;;;;;15.27;12.52;;;20.60;99.90;;;;;;5031317;28;20040;-80
2021/09/09 08:11:40;;;;;;;15.15;13.55;;;20.70;99.90;;;;;;5031220;28;20087;-81
2021/09/09 08:14:12;;;;;;;15.07;12.30;;;20.80;99.90;;;;;;5015220;28;20128;-81
2021/09/09 08:16:39;;;;;;;14.27;11.32;;;20.80;99.90;;;;;;5015657;28;20083;-81
2021/09/09 08:19:05;;;;;;;13.63;11.05;;;20.90;99.90;;;;;;5031031;28;20488;-81
2021/09/09 08:21:33;;;;;;;13.07;9.90;;;21.00;99.90;;;;;;5031209;28;20116;-82
2021/09/09 08:24:01;;;;;;;11.73;10.23;;;21.00;99.90;;;;;;5014366;28;20054;-82
2021/09/09 08:26:28;;;;;;;14.90;11.90;;;21.10;99.90;;;;;;5015755;28;20459;-82
2021/09/09 08:28:56;;;;;;;13.20;11.40;;;21.20;99.90;;;;;;5015574;28;20033;-81
2021/09/09 08:31:22;;;;;;;13.25;9.55;;;21.20;99.90;;;;;;5030610;28;20038;-83
2021/09/09 08:33:50;;;;;;;11.05;9.43;;;21.30;99.90;;;;;;5030728;28;20030;-82
2021/09/09 08:36:21;;;;;;;12.07;9.68;;;21.40;99.90;;;;;;5014864;28;20037;-81
2021/09/09 08:38:48;;;;;;;10.82;8.98;;;21.50;99.90;;;;;;5014542;28;20040;-82
2021/09/09 08:41:15;;;;;;;10.38;9.07;;;21.60;99.90;;;;;;5015289;28;20129;-82
2021/09/09 08:43:43;;;;;;;12.93;11.35;;;21.70;99.90;;;;;;5014468;28;20084;-83
2021/09/09 08:46:15;;;;;;;12.13;10.20;;;21.80;99.90;;;;;;5012831;28;20057;-84
2021/09/09 08:48:46;;;;;;;11.27;9.30;;;21.90;99.90;;;;;;5013887;28;20026;-83
2021/09/09 08:51:18;;;;;;;13.18;11.35;;;22.00;99.90;;;;;;5030702;28;20022;-83
2021/09/09 08:53:48;;;;;;;18.07;12.77;;;22.10;99.90;;;;;;5030493;28;20165;-83
2021/09/09 08:56:30;;;;;;;11.93;10.57;;;22.20;99.90;;;;;;5015251;28;20273;-83
2021/09/09 08:58:59;;;;;;;14.07;10.70;;;22.40;99.90;;;;;;5013913;28;20048;-83
2021/09/09 09:01:25;;;;;;;11.73;8.65;;;22.40;99.90;;;;;;5030514;28;20036;-83
2021/09/09 09:04:03;;;;;;;10.38;8.63;;;22.60;99.90;;;;;;5014716;28;20021;-84
2021/09/09 09:06:32;;;;;;;9.93;8.00;;;22.90;99.90;;;;;;5032753;28;20033;-82
2021/09/09 09:09:10;;;;;;;13.55;8.60;;;23.10;99.90;;;;;;5043232;28;20034;-82
2021/09/09 09:11:44;;;;;;;12.10;10.50;;;23.40;99.90;;;;;;5034403;28;20442;-82
2021/09/09 09:14:13;;;;;;;9.85;7.95;;;23.70;99.90;;;;;;5036419;28;20524;-82
2021/09/09 09:16:44;;;;;;;11.25;8.10;;;23.80;99.90;;;;;;5017860;28;20037;-83
2021/09/09 09:19:12;;;;;;;10.80;8.40;;;24.10;99.90;;;;;;5017010;28;20026;-82
2021/09/09 09:21:42;;;;;;;10.10;8.73;;;24.40;99.90;;;;;;5031453;28;20026;-83
2021/09/09 09:24:08;;;;;;;10.25;7.65;;;24.50;99.90;;;;;;5033421;28;20189;-82
2021/09/09 09:26:36;;;;;;;10.65;9.18;;;24.60;99.90;;;;;;5031070;28;20390;-81
2021/09/09 09:29:03;;;;;;;11.80;10.00;;;24.70;99.90;;;;;;5029786;28;20085;-82
2021/09/09 09:31:34;;;;;;;11.77;9.50;;;24.70;99.90;;;;;;5030394;28;20525;-81
2021/09/09 09:34:08;;;;;;;13.32;11.48;;;25.00;99.80;;;;;;5015629;28;20351;-82
2021/09/09 09:36:42;;;;;;;13.10;10.48;;;25.30;99.00;;;;;;5030271;28;20030;-82
2021/09/09 09:39:19;;;;;;;11.85;10.15;;;25.60;98.60;;;;;;4997510;28;20041;-82
2021/09/09 09:42:04;;;;;;;9.32;8.20;;;25.90;98.30;;;;;;5014451;28;20072;-82
2021/09/09 09:44:41;;;;;;;11.38;7.38;;;26.20;98.20;;;;;;5031284;28;20056;-86
2021/09/09 09:47:09;;;;;;;9.73;8.63;;;26.70;98.00;;;;;;5029482;28;20028;-83
2021/09/09 09:49:39;;;;;;;10.32;7.75;;;26.70;97.70;;;;;;5038801;28;20111;-83
2021/09/09 09:52:07;;;;;;;9.80;7.40;;;26.70;97.60;;;;;;5037363;28;20025;-83
2021/09/09 09:54:39;;;;;;;8.55;7.00;;;26.80;97.50;;;;;;5046066;28;20029;-84
2021/09/09 09:57:10;;;;;;;7.50;6.57;;;26.80;97.30;;;;;;5032169;28;20037;-83
2021/09/09 09:59:38;;;;;;;8.43;7.20;;;27.10;97.10;;;;;;5022579;28;20482;-83
2021/09/09 10:02:04;;;;;;;11.65;7.93;;;27.20;96.50;;;;;;5037977;28;20465;-83
2021/09/09 10:04:39;;;;;;;9.63;7.63;;;27.30;96.00;;;;;;5033121;28;20500;-83
2021/09/09 10:07:09;;;;;;;9.63;7.63;;;27.60;95.60;;;;;;5001594;28;20085;-82
2021/09/09 10:09:38;;;;;;;9.63;7.72;;;27.80;95.50;;;;;;5038696;28;20028;-82
2021/09/09 10:12:11;;;;;;;8.60;7.13;;;28.70;95.10;;;;;;5039003;28;20415;-83
2021/09/09 10:14:56;;;;;;;8.00;6.88;;;29.80;94.40;;;;;;5045307;28;20056;-83
2021/09/09 10:17:27;;;;;;;8.60;7.35;;;30.80;93.10;;;;;;5024876;28;20029;-84
2021/09/09 10:20:13;;;;;;;7.88;6.93;;;31.30;91.90;;;;;;5023571;28;20088;-83
2021/09/09 10:23:05;;;;;;;9.30;6.45;;;31.70;91.20;;;;;;5020093;28;20076;-83
2021/09/09 10:25:54;;;;;;;8.05;6.85;;;32.30;90.60;;;;;;5043301;28;20547;-82
2021/09/09 10:28:49;;;;;;;7.45;6.50;;;32.80;89.60;;;;;;5046649;28;20025;-84
2021/09/09 10:31:19;;;;;;;7.57;6.53;;;33.10;87.50;;;;;;5023774;28;20032;-84
2021/09/09 10:34:05;;;;;;;7.40;6.63;;;33.40;86.50;;;;;;5041946;28;20024;-83
2021/09/09 10:36:41;;;;;;;7.60;6.50;;;33.50;84.90;;;;;;5033629;28;20026;-83
2021/09/09 10:39:21;;;;;;;11.20;7.53;;;33.30;84.80;;;;;;5023858;28;20480;-83
2021/09/09 10:41:47;;;;;;;8.95;8.05;;;33.40;83.60;;;;;;5038553;28;20511;-83
2021/09/09 10:44:14;;;;;;;10.30;8.43;;;33.20;82.50;;;;;;5056370;28;20037;-83
2021/09/09 10:46:49;;;;;;;10.35;9.07;;;33.30;82.00;;;;;;5016846;28;20059;-82
2021/09/09 10:49:21;;;;;;;8.57;7.65;;;33.30;80.60;;;;;;5049245;28;20080;-82
2021/09/09 10:52:10;;;;;;;9.15;7.85;;;33.20;81.10;;;;;;5045782;28;20025;-82
2021/09/09 10:55:04;;;;;;;8.60;7.45;;;33.20;80.40;;;;;;5046615;28;20460;-83
2021/09/09 10:57:31;;;;;;;8.82;7.10;;;33.50;80.50;;;;;;5026437;28;20392;-83
2021/09/09 11:00:07;;;;;;;8.68;6.68;;;33.90;80.10;;;;;;5041629;28;20029;-84
2021/09/09 11:02:33;;;;;;;9.93;6.82;;;34.50;79.20;;;;;;5045380;28;20071;-83
2021/09/09 11:05:07;;;;;;;8.60;7.75;;;35.00;78.30;;;;;;5038337;28;20092;-84
2021/09/09 11:07:44;;;;;;;8.80;6.70;;;35.00;76.80;;;;;;5035231;28;20064;-83
2021/09/09 11:10:38;;;;;;;10.13;7.13;;;35.00;76.70;;;;;;5049452;28;20036;-84
2021/09/09 11:13:27;;;;;;;8.60;7.43;;;35.00;75.30;;;;;;5009015;28;20503;-82
2021/09/09 11:15:54;;;;;;;9.48;7.30;;;35.00;74.80;;;;;;5041692;28;20509;-84
2021/09/09 11:18:28;;;;;;;8.65;6.40;;;34.90;74.60;;;;;;5028200;28;20060;-83
2021/09/09 11:21:07;;;;;;;9.18;6.35;;;35.10;74.00;;;;;;5038467;28;20032;-83
2021/09/09 11:23:36;;;;;;;8.48;6.30;;;35.20;73.50;;;;;;5046349;28;20057;-83
2021/09/09 11:26:20;;;;;;;6.88;5.97;;;35.40;73.60;;;;;;5038446;28;20433;-83
2021/09/09 11:28:49;;;;;;;10.60;6.85;;;35.60;73.30;;;;;;5021162;28;20041;-85
2021/09/09 11:31:23;;;;;;;10.35;7.22;;;35.90;72.60;;;;;;5048724;28;20068;-85
2021/09/09 11:34:14;;;;;;;7.95;7.03;;;35.80;72.30;;;;;;5046526;28;20075;-84
2021/09/09 11:36:45;;;;;;;9.15;6.35;;;36.00;72.10;;;;;;5037927;28;20030;-84
2021/09/09 11:39:16;;;;;;;9.48;7.30;;;36.20;72.10;;;;;;5050162;28;20362;-84
2021/09/09 11:41:43;;;;;;;7.78;6.97;;;36.30;71.30;;;;;;5045671;28;20103;-84
2021/09/09 11:44:30;;;;;;;8.88;7.32;;;36.10;71.90;;;;;;5050039;28;20444;-84
2021/09/09 11:47:09;;;;;;;9.75;6.95;;;35.80;70.90;;;;;;5038786;28;20017;-85
2021/09/09 11:49:42;;;;;;;8.55;7.47;;;35.20;71.70;;;;;;5029303;28;20040;-84
2021/09/09 11:52:10;;;;;;;10.02;7.18;;;34.70;72.50;;;;;;5047578;28;20366;-83
2021/09/09 11:54:39;;;;;;;8.00;7.20;;;34.40;73.30;;;;;;5037307;28;20401;-83
2021/09/09 11:57:13;;;;;;;11.38;8.82;;;34.00;74.00;;;;;;5021157;28;20025;-82
2021/09/09 11:59:51;;;;;;;9.85;7.63;;;33.50;74.10;;;;;;5043202;28;20028;-82
2021/09/09 12:02:33;;;;;;;9.80;8.57;;;33.00;75.40;;;;;;5023748;28;20390;-83
2021/09/09 12:05:08;;;;;;;9.88;7.82;;;32.70;76.10;;;;;;5021639;28;20017;-83
2021/09/09 12:07:35;;;;;;;10.10;8.30;;;32.30;77.00;;;;;;5034099;28;20026;-84
2021/09/09 12:10:07;;;;;;;9.43;7.72;;;32.00;77.60;;;;;;5062845;28;20079;-84
2021/09/09 12:12:35;;;;;;;8.80;7.90;;;32.10;78.30;;;;;;5038935;28;20355;-84
2021/09/09 12:15:08;;;;;;;8.70;7.80;;;32.60;78.50;;;;;;5032619;28;20069;-83
2021/09/09 12:17:34;;;;;;;9.38;8.38;;;33.60;77.10;;;;;;5041965;28;20496;-83
2021/09/09 12:20:22;;;;;;;10.48;9.02;;;34.20;75.40;;;;;;5041721;28;20029;-83
2021/09/09 12:22:56;;;;;;;7.85;7.05;;;34.90;74.10;;;;;;5050134;28;20044;-83
2021/09/09 12:25:28;;;;;;;10.43;7.72;;;35.30;73.90;;;;;;5040685;28;20025;-84
2021/09/09 12:27:58;;;;;;;9.73;8.48;;;35.70;72.90;;;;;;5033624;28;20036;-84
2021/09/09 12:30:27;;;;;;;9.98;8.15;;;35.90;72.50;;;;;;5048948;28;20025;-84
2021/09/09 12:32:55;;;;;;;9.82;8.00;;;36.00;71.80;;;;;;5037014;28;20033;-86
2021/09/09 12:35:28;;;;;;;9.70;8.45;;;35.90;71.70;;;;;;5045891;28;20064;-85
2021/09/09 12:38:07;;;;;;;8.27;7.38;;;36.10;71.30;;;;;;5033102;28;20044;-86
2021/09/09 12:40:53;;;;;;;8.27;7.47;;;36.10;71.30;;;;;;5049786;28;20131;-84
2021/09/09 12:43:31;;;;;;;8.88;7.22;;;36.40;71.10;;;;;;5039935;28;20017;-84
2021/09/09 12:46:00;;;;;;;10.20;8.52;;;36.50;70.90;;;;;;5041355;28;20033;-84